createdAt,value
2022-10-01T00:02:39.447Z,3.88
2022-10-01T00:05:44.395Z,4.47
2022-10-01T00:08:49.510Z,3.67
2022-10-01T00:11:53.540Z,3.85
2022-10-01T00:14:56.790Z,3.85
2022-10-01T00:18:00.045Z,4.03
2022-10-01T00:21:08.767Z,4.10
2022-10-01T00:24:14.270Z,4.80
2022-10-01T00:27:17.419Z,5.55
2022-10-01T00:30:21.716Z,4.97
2022-10-01T00:33:25.414Z,4.28
2022-10-01T00:36:30.482Z,3.83
2022-10-01T00:39:33.715Z,3.83
2022-10-01T00:42:36.959Z,4.50
2022-10-01T00:45:40.367Z,4.45
2022-10-01T00:48:49.121Z,4.03
2022-10-01T00:52:02.954Z,4.13
2022-10-01T00:55:09.748Z,4.05
2022-10-01T00:58:16.278Z,4.07
2022-10-01T01:01:19.650Z,4.05
2022-10-01T01:04:22.992Z,4.22
2022-10-01T01:07:28.639Z,4.82
2022-10-01T01:10:49.495Z,4.72
2022-10-01T01:13:57.978Z,3.97
2022-10-01T01:17:08.728Z,4.10
2022-10-01T01:20:41.114Z,4.07
2022-10-01T01:24:30.136Z,3.92
2022-10-01T01:27:39.445Z,4.20
2022-10-01T01:30:45.458Z,4.32
2022-10-01T01:33:51.290Z,4.20
2022-10-01T01:36:59.672Z,4.18
2022-10-01T01:40:06.437Z,4.03
2022-10-01T01:43:19.689Z,4.57
2022-10-01T01:46:32.112Z,4.18
2022-10-01T01:49:36.082Z,3.80
2022-10-01T01:52:39.467Z,4.10
2022-10-01T01:55:45.388Z,4.00
2022-10-01T01:58:49.259Z,4.30
2022-10-01T02:01:58.984Z,3.67
2022-10-01T02:05:06.579Z,4.10
2022-10-01T02:08:28.066Z,4.33
2022-10-01T02:11:38.260Z,4.40
2022-10-01T02:14:51.888Z,4.33
2022-10-01T02:18:05.051Z,4.00
2022-10-01T02:21:15.920Z,4.20
2022-10-01T02:24:29.084Z,4.40
2022-10-01T02:27:39.716Z,4.37
2022-10-01T02:30:45.138Z,3.80
2022-10-01T02:33:53.092Z,3.93
2022-10-01T02:36:58.805Z,4.20
2022-10-01T02:40:04.219Z,4.63
2022-10-01T02:43:12.852Z,4.20
2022-10-01T02:46:22.002Z,4.30
2022-10-01T02:49:30.653Z,4.40
2022-10-01T02:52:39.876Z,3.90
2022-10-01T02:55:44.390Z,4.00
2022-10-01T02:58:47.516Z,4.10
2022-10-01T03:01:50.846Z,4.17
2022-10-01T03:04:56.297Z,4.40
2022-10-01T03:07:59.533Z,4.17
2022-10-01T03:11:02.760Z,4.30
2022-10-01T03:14:06.801Z,4.07
2022-10-01T03:17:10.097Z,4.60
2022-10-01T03:20:14.786Z,4.30
2022-10-01T03:23:17.985Z,4.80
2022-10-01T03:26:21.243Z,4.93
2022-10-01T03:29:24.685Z,4.30
2022-10-01T03:32:28.011Z,4.97
2022-10-01T03:35:32.796Z,5.37
2022-10-01T03:38:36.008Z,5.10
2022-10-01T03:41:39.233Z,4.53
2022-10-01T03:44:42.466Z,4.67
2022-10-01T03:47:45.728Z,4.67
2022-10-01T03:50:56.167Z,4.07
2022-10-01T03:54:00.205Z,5.37
2022-10-01T03:57:03.455Z,5.17
2022-10-01T04:00:07.257Z,4.77
2022-10-01T04:03:15.003Z,4.70
2022-10-01T04:06:20.438Z,5.20
2022-10-01T04:09:23.679Z,4.60
2022-10-01T04:12:26.879Z,4.73
2022-10-01T04:15:30.131Z,4.77
2022-10-01T04:18:34.241Z,4.70
2022-10-01T04:21:39.238Z,5.20
2022-10-01T04:24:42.480Z,4.87
2022-10-01T04:27:56.570Z,4.97
2022-10-01T04:31:13.664Z,4.83
2022-10-01T04:34:16.939Z,5.17
2022-10-01T04:37:22.239Z,5.07
2022-10-01T04:40:25.535Z,5.17
2022-10-01T04:43:28.761Z,4.97
2022-10-01T04:46:32.093Z,4.37
2022-10-01T04:49:35.456Z,4.30
2022-10-01T04:52:40.054Z,4.33
2022-10-01T04:55:43.854Z,4.90
2022-10-01T04:58:48.303Z,4.73
2022-10-01T05:01:51.574Z,4.27
2022-10-01T05:04:54.807Z,4.50
2022-10-01T05:07:59.462Z,4.03
2022-10-01T05:11:03.247Z,4.43
2022-10-01T05:14:06.749Z,4.27
2022-10-01T05:17:09.967Z,5.30
2022-10-01T05:20:18.993Z,4.97
2022-10-01T05:23:23.628Z,4.73
2022-10-01T05:26:26.808Z,4.97
2022-10-01T05:29:30.692Z,5.53
2022-10-01T05:32:34.291Z,5.03
2022-10-01T05:35:37.504Z,4.80
2022-10-01T05:38:42.481Z,5.03
2022-10-01T05:41:45.672Z,5.00
2022-10-01T05:44:50.158Z,5.40
2022-10-01T05:48:00.398Z,5.53
2022-10-01T05:51:04.588Z,5.30
2022-10-01T05:54:09.656Z,4.97
2022-10-01T05:57:13.146Z,5.38
2022-10-01T06:00:16.387Z,5.07
2022-10-01T06:03:19.695Z,5.03
2022-10-01T06:06:23.712Z,5.43
2022-10-01T06:09:28.478Z,5.78
2022-10-01T06:12:34.288Z,6.28
2022-10-01T06:15:39.829Z,5.03
2022-10-01T06:18:44.031Z,4.38
2022-10-01T06:21:47.189Z,3.58
2022-10-01T06:24:56.516Z,3.97
2022-10-01T06:28:01.133Z,4.10
2022-10-01T06:31:05.936Z,4.03
2022-10-01T06:34:09.210Z,4.50
2022-10-01T06:37:12.471Z,3.40
2022-10-01T06:40:17.134Z,3.85
2022-10-01T06:43:20.439Z,4.32
2022-10-01T06:46:23.710Z,4.22
2022-10-01T06:49:27.137Z,4.40
2022-10-01T06:52:48.024Z,4.10
2022-10-01T06:55:52.707Z,5.20
2022-10-01T06:58:55.929Z,4.90
2022-10-01T07:01:59.153Z,4.88
2022-10-01T07:05:02.614Z,4.30
2022-10-01T07:08:06.339Z,4.30
2022-10-01T07:11:10.958Z,4.93
2022-10-01T07:14:14.262Z,4.85
2022-10-01T07:17:17.615Z,4.90
2022-10-01T07:20:22.294Z,5.05
2022-10-01T07:23:25.719Z,4.57
2022-10-01T07:26:30.356Z,5.18
2022-10-01T07:29:33.873Z,3.63
2022-10-01T07:32:37.128Z,3.65
2022-10-01T07:35:40.337Z,3.03
2022-10-01T07:38:45.183Z,3.63
2022-10-01T07:41:51.626Z,3.45
2022-10-01T07:44:55.414Z,3.53
2022-10-01T07:48:00.752Z,3.40
2022-10-01T07:51:04.048Z,3.58
2022-10-01T07:54:08.660Z,3.65
2022-10-01T07:57:13.243Z,3.20
2022-10-01T08:00:16.646Z,3.63
2022-10-01T08:03:19.892Z,4.28
2022-10-01T08:06:25.594Z,3.70
2022-10-01T08:09:29.133Z,3.25
2022-10-01T08:12:34.276Z,3.47
2022-10-01T08:15:37.653Z,3.72
2022-10-01T08:18:41.848Z,3.60
2022-10-01T08:21:45.036Z,3.92
2022-10-01T08:24:48.315Z,3.40
2022-10-01T08:27:54.009Z,3.60
2022-10-01T08:30:57.815Z,3.58
2022-10-01T08:34:01.047Z,3.72
2022-10-01T08:37:04.359Z,3.28
2022-10-01T08:40:09.323Z,3.50
2022-10-01T08:43:30.949Z,3.92
2022-10-01T08:46:36.886Z,4.35
2022-10-01T08:49:46.075Z,3.85
2022-10-01T08:52:54.380Z,3.28
2022-10-01T08:55:59.314Z,3.10
2022-10-01T08:59:10.957Z,2.90
2022-10-01T09:02:22.638Z,3.33
2022-10-01T09:05:33.172Z,3.38
2022-10-01T09:08:49.218Z,3.08
2022-10-01T09:12:14.217Z,3.92
2022-10-01T09:15:26.128Z,3.55
2022-10-01T09:18:41.150Z,3.60
2022-10-01T09:21:56.821Z,3.78
2022-10-01T09:25:04.996Z,3.47
2022-10-01T09:28:15.434Z,3.70
2022-10-01T09:31:25.566Z,3.70
2022-10-01T09:34:36.896Z,3.70
2022-10-01T09:37:49.800Z,3.80
2022-10-01T09:41:02.061Z,3.83
2022-10-01T09:44:05.679Z,4.00
2022-10-01T09:47:18.657Z,4.15
2022-10-01T09:50:30.887Z,3.92
2022-10-01T09:53:38.083Z,4.30
2022-10-01T09:56:45.443Z,4.22
2022-10-01T09:59:56.172Z,4.85
2022-10-01T10:03:01.471Z,4.35
2022-10-01T10:06:07.168Z,3.70
2022-10-01T10:09:17.755Z,3.70
2022-10-01T10:12:30.616Z,3.90
2022-10-01T10:15:33.991Z,4.00
2022-10-01T10:18:40.663Z,4.00
2022-10-01T10:21:52.319Z,4.15
2022-10-01T10:24:58.553Z,4.18
2022-10-01T10:28:02.419Z,4.40
2022-10-01T10:31:12.552Z,4.63
2022-10-01T10:34:19.984Z,3.80
2022-10-01T10:37:28.840Z,4.18
2022-10-01T10:40:36.249Z,4.30
2022-10-01T10:43:39.719Z,4.10
2022-10-01T10:46:46.471Z,4.28
2022-10-01T10:49:54.841Z,5.65
2022-10-01T10:52:58.639Z,6.90
2022-10-01T10:56:04.220Z,8.98
2022-10-01T10:59:09.390Z,6.93
2022-10-01T11:02:21.536Z,6.00
2022-10-01T11:05:31.951Z,6.03
2022-10-01T11:08:35.929Z,6.63
2022-10-01T11:11:51.414Z,5.60
2022-10-01T11:15:09.325Z,5.93
2022-10-01T11:18:36.443Z,5.70
2022-10-01T11:21:59.285Z,5.60
2022-10-01T11:25:19.350Z,4.93
2022-10-01T11:28:38.438Z,5.78
2022-10-01T11:31:49.797Z,5.78
2022-10-01T11:35:18.776Z,5.95
2022-10-01T11:38:43.103Z,5.60
2022-10-01T11:41:50.222Z,5.90
2022-10-01T11:45:01.576Z,6.05
2022-10-01T11:48:10.555Z,6.13
2022-10-01T11:51:17.913Z,6.57
2022-10-01T11:54:27.388Z,7.95
2022-10-01T11:57:58.128Z,7.35
2022-10-01T12:01:08.503Z,6.38
2022-10-01T12:04:26.041Z,7.03
2022-10-01T12:07:38.338Z,7.00
2022-10-01T12:10:48.419Z,7.38
2022-10-01T12:13:58.539Z,6.68
2022-10-01T12:17:12.236Z,7.43
2022-10-01T12:20:25.336Z,7.40
2022-10-01T12:23:32.538Z,6.88
2022-10-01T12:26:46.280Z,7.13
2022-10-01T12:29:57.292Z,7.07
2022-10-01T12:33:39.998Z,7.65
2022-10-01T12:36:53.282Z,7.57
2022-10-01T12:40:11.000Z,7.25
2022-10-01T12:43:34.674Z,7.30
2022-10-01T12:46:45.929Z,7.00
2022-10-01T12:49:57.359Z,7.38
2022-10-01T12:53:17.720Z,7.72
2022-10-01T12:56:31.006Z,7.65
2022-10-01T12:59:50.660Z,8.05
2022-10-01T13:03:23.288Z,8.32
2022-10-01T13:06:37.845Z,7.35
2022-10-01T13:09:51.140Z,8.52
2022-10-01T13:13:03.277Z,8.10
2022-10-01T13:16:14.950Z,9.93
2022-10-01T13:19:25.485Z,9.32
2022-10-01T13:22:37.176Z,10.57
2022-10-01T13:25:46.912Z,10.50
2022-10-01T13:29:09.639Z,10.52
2022-10-01T13:32:29.246Z,10.70
2022-10-01T13:35:36.652Z,9.48
2022-10-01T13:38:45.196Z,10.80
2022-10-01T13:41:50.606Z,10.32
2022-10-01T13:44:56.554Z,10.05
2022-10-01T13:48:18.025Z,10.57
2022-10-01T13:51:21.492Z,9.20
2022-10-01T13:54:28.926Z,9.68
2022-10-01T13:57:36.127Z,9.15
2022-10-01T14:00:49.534Z,8.65
2022-10-01T14:04:02.319Z,8.77
2022-10-01T14:07:15.760Z,8.40
2022-10-01T14:10:20.075Z,7.95
2022-10-01T14:13:40.665Z,8.43
2022-10-01T14:16:47.165Z,8.38
2022-10-01T14:19:52.084Z,7.82
2022-10-01T14:23:10.778Z,7.30
2022-10-01T14:26:22.628Z,7.25
2022-10-01T14:29:50.259Z,7.60
2022-10-01T14:33:30.444Z,6.57
2022-10-01T14:36:37.598Z,6.40
2022-10-01T14:39:41.002Z,6.47
2022-10-01T14:42:44.263Z,6.28
2022-10-01T14:45:53.411Z,5.95
2022-10-01T14:49:00.804Z,6.55
2022-10-01T14:52:07.755Z,6.80
2022-10-01T14:55:15.626Z,6.95
2022-10-01T14:58:26.967Z,6.72
2022-10-01T15:01:30.743Z,8.52
2022-10-01T15:04:34.041Z,6.90
2022-10-01T15:07:38.697Z,6.03
2022-10-01T15:10:46.267Z,6.70
2022-10-01T15:13:52.115Z,6.90
2022-10-01T15:16:55.523Z,6.70
2022-10-01T15:19:58.882Z,6.75
2022-10-01T15:23:06.735Z,6.75
2022-10-01T15:26:13.578Z,6.45
2022-10-01T15:29:18.284Z,8.30
2022-10-01T15:32:23.815Z,7.43
2022-10-01T15:35:27.518Z,7.70
2022-10-01T15:38:33.592Z,8.05
2022-10-01T15:41:38.220Z,7.38
2022-10-01T15:44:45.629Z,8.68
2022-10-01T15:47:52.967Z,7.82
2022-10-01T15:51:00.808Z,8.07
2022-10-01T15:54:10.068Z,8.35
2022-10-01T15:57:19.737Z,9.15
2022-10-01T16:00:25.284Z,9.52
2022-10-01T16:03:32.943Z,8.75
2022-10-01T16:06:39.666Z,9.20
2022-10-01T16:09:52.928Z,8.23
2022-10-01T16:12:56.418Z,12.20
2022-10-01T16:16:19.847Z,11.55
2022-10-01T16:19:29.540Z,10.90
2022-10-01T16:22:34.206Z,10.93
2022-10-01T16:25:45.929Z,12.30
2022-10-01T16:28:54.496Z,11.90
2022-10-01T16:31:57.936Z,11.30
2022-10-01T16:35:23.298Z,10.95
2022-10-01T16:38:26.492Z,12.38
2022-10-01T16:41:33.875Z,12.20
2022-10-01T16:44:40.162Z,10.95
2022-10-01T16:47:43.623Z,13.15
2022-10-01T16:50:47.794Z,12.55
2022-10-01T16:53:57.115Z,19.70
2022-10-01T16:57:02.083Z,12.98
2022-10-01T17:00:05.696Z,13.80
2022-10-01T17:03:15.507Z,15.90
2022-10-01T17:06:18.667Z,16.05
2022-10-01T17:09:21.948Z,15.10
2022-10-01T17:12:27.096Z,17.00
2022-10-01T17:15:30.495Z,15.95
2022-10-01T17:18:33.806Z,16.70
2022-10-01T17:21:37.348Z,16.38
2022-10-01T17:24:40.552Z,15.82
2022-10-01T17:27:45.492Z,16.80
2022-10-01T17:30:49.747Z,17.23
2022-10-01T17:33:53.120Z,17.40
2022-10-01T17:36:56.303Z,17.23
2022-10-01T17:39:59.488Z,16.80
2022-10-01T17:43:04.203Z,18.33
2022-10-01T17:46:07.744Z,16.80
2022-10-01T17:49:16.558Z,15.57
2022-10-01T17:52:20.392Z,17.05
2022-10-01T17:55:26.686Z,18.05
2022-10-01T17:58:33.832Z,19.67
2022-10-01T18:01:37.235Z,18.55
2022-10-01T18:04:43.594Z,19.48
2022-10-01T18:07:47.042Z,18.98
2022-10-01T18:10:50.223Z,20.20
2022-10-01T18:13:54.872Z,18.73
2022-10-01T18:16:58.113Z,20.50
2022-10-01T18:20:01.805Z,18.83
2022-10-01T18:23:05.034Z,17.35
2022-10-01T18:26:09.076Z,17.63
2022-10-01T18:29:18.987Z,20.00
2022-10-01T18:32:23.954Z,21.48
2022-10-01T18:35:32.176Z,20.20
2022-10-01T18:38:38.547Z,19.52
2022-10-01T18:41:42.572Z,20.15
2022-10-01T18:44:47.222Z,19.92
2022-10-01T18:48:04.672Z,20.35
2022-10-01T18:51:16.967Z,22.45
2022-10-01T18:54:39.971Z,27.58
2022-10-01T18:58:01.512Z,26.38
2022-10-01T19:01:17.897Z,23.88
2022-10-01T19:04:39.346Z,17.90
2022-10-01T19:07:54.949Z,16.02
2022-10-01T19:11:04.069Z,15.02
2022-10-01T19:14:39.026Z,13.60
2022-10-01T19:18:03.962Z,12.10
2022-10-01T19:21:20.216Z,12.02
2022-10-01T19:24:51.388Z,11.02
2022-10-01T19:28:10.733Z,10.90
2022-10-01T19:31:21.065Z,10.63
2022-10-01T19:34:31.124Z,10.00
2022-10-01T19:37:39.335Z,8.85
2022-10-01T19:40:47.230Z,9.30
2022-10-01T19:43:57.688Z,8.30
2022-10-01T19:47:15.462Z,10.20
2022-10-01T19:50:24.195Z,10.48
2022-10-01T19:53:32.092Z,10.25
2022-10-01T19:56:38.356Z,11.05
2022-10-01T19:59:42.506Z,11.30
2022-10-01T20:02:52.778Z,12.68
2022-10-01T20:06:03.588Z,12.48
2022-10-01T20:09:15.383Z,13.15
2022-10-01T20:12:25.974Z,12.40
2022-10-01T20:15:42.027Z,13.98
2022-10-01T20:18:50.948Z,11.95
2022-10-01T20:22:02.330Z,13.57
2022-10-01T20:25:11.878Z,12.30
2022-10-01T20:28:26.026Z,13.23
2022-10-01T20:31:34.031Z,12.00
2022-10-01T20:34:48.392Z,12.38
2022-10-01T20:38:00.461Z,12.73
2022-10-01T20:41:10.840Z,11.93
2022-10-01T20:44:18.490Z,12.23
2022-10-01T20:47:27.419Z,12.18
2022-10-01T20:50:35.357Z,11.23
2022-10-01T20:53:46.255Z,11.55
2022-10-01T20:56:57.857Z,12.50
2022-10-01T21:00:07.989Z,12.43
2022-10-01T21:03:19.210Z,11.35
2022-10-01T21:06:27.006Z,11.65
2022-10-01T21:09:37.026Z,11.90
2022-10-01T21:12:45.011Z,11.48
2022-10-01T21:15:56.825Z,11.43
2022-10-01T21:19:12.971Z,12.55
2022-10-01T21:22:32.386Z,11.75
2022-10-01T21:25:52.543Z,11.40
2022-10-01T21:29:15.812Z,13.43
2022-10-01T21:32:33.500Z,13.65
2022-10-01T21:35:47.121Z,13.32
2022-10-01T21:38:56.210Z,11.95
2022-10-01T21:42:15.007Z,10.50
2022-10-01T21:45:26.129Z,9.65
2022-10-01T21:48:43.086Z,9.60
2022-10-01T21:51:59.653Z,9.80
2022-10-01T21:55:18.381Z,11.23
2022-10-01T21:58:37.330Z,11.38
2022-10-01T22:01:57.337Z,11.43
2022-10-01T22:05:10.648Z,11.23
2022-10-01T22:08:26.369Z,11.90
2022-10-01T22:11:33.874Z,12.82
2022-10-01T22:14:38.996Z,12.00
2022-10-01T22:17:43.023Z,12.27
2022-10-01T22:20:47.476Z,10.93
2022-10-01T22:23:58.027Z,10.93
2022-10-01T22:27:06.612Z,10.00
2022-10-01T22:30:14.400Z,10.57
2022-10-01T22:33:21.221Z,9.63
2022-10-01T22:36:33.107Z,10.50
2022-10-01T22:39:42.655Z,9.23
2022-10-01T22:42:54.342Z,8.85
2022-10-01T22:46:17.968Z,8.37
2022-10-01T22:49:36.194Z,8.60
2022-10-01T22:52:49.414Z,8.93
2022-10-01T22:55:55.507Z,8.67
2022-10-01T22:59:11.164Z,8.83
2022-10-01T23:02:22.615Z,8.47
2022-10-01T23:05:40.307Z,8.27
2022-10-01T23:08:50.298Z,8.05
2022-10-01T23:12:01.153Z,8.40
2022-10-01T23:15:15.007Z,8.88
2022-10-01T23:18:32.545Z,7.85
2022-10-01T23:21:42.454Z,8.07
2022-10-01T23:25:01.046Z,8.73
2022-10-01T23:28:16.717Z,8.50
2022-10-01T23:31:30.674Z,8.20
2022-10-01T23:34:47.388Z,7.80
2022-10-01T23:38:07.973Z,8.32
2022-10-01T23:41:20.040Z,8.35
2022-10-01T23:44:33.571Z,8.05
2022-10-01T23:47:43.549Z,7.72
2022-10-01T23:50:54.429Z,7.78
2022-10-01T23:54:04.007Z,8.48
2022-10-01T23:57:12.793Z,7.95
